createdAt,value
2019-06-18T00:00:06.856Z,4.10
2019-06-18T00:01:06.833Z,3.90
2019-06-18T00:02:06.857Z,3.70
2019-06-18T00:03:06.883Z,3.90
2019-06-18T00:04:06.900Z,4.20
2019-06-18T00:05:06.925Z,4.20
2019-06-18T00:06:06.947Z,4.20
2019-06-18T00:07:06.978Z,3.90
2019-06-18T00:08:06.993Z,4.10
2019-06-18T00:09:07.015Z,3.90
2019-06-18T00:10:07.042Z,4.00
2019-06-18T00:11:07.060Z,3.90
2019-06-18T00:12:07.081Z,4.10
2019-06-18T00:13:07.119Z,4.10
2019-06-18T00:14:07.129Z,3.70
2019-06-18T00:15:07.156Z,4.10
2019-06-18T00:16:07.172Z,4.20
2019-06-18T00:17:07.196Z,4.00
2019-06-18T00:18:07.219Z,4.20
2019-06-18T00:19:07.242Z,4.40
2019-06-18T00:20:07.267Z,4.00
2019-06-18T00:21:07.331Z,3.90
2019-06-18T00:22:07.311Z,3.80
2019-06-18T00:23:07.362Z,3.80
2019-06-18T00:24:07.370Z,4.50
2019-06-18T00:25:07.380Z,4.00
2019-06-18T00:26:07.403Z,4.10
2019-06-18T00:27:07.422Z,4.10
2019-06-18T00:28:07.446Z,4.20
2019-06-18T00:29:07.473Z,3.80
2019-06-18T00:30:07.495Z,3.80
2019-06-18T00:31:07.517Z,4.30
2019-06-18T00:32:07.536Z,3.90
2019-06-18T00:33:07.565Z,3.60
2019-06-18T00:34:07.581Z,4.20
2019-06-18T00:35:07.602Z,4.90
2019-06-18T00:36:10.532Z,4.10
2019-06-18T00:37:07.649Z,4.00
2019-06-18T00:38:10.131Z,4.10
2019-06-18T00:39:07.693Z,4.20
2019-06-18T00:40:10.818Z,3.80
2019-06-18T00:41:08.384Z,4.10
2019-06-18T00:42:07.778Z,4.00
2019-06-18T00:43:07.803Z,4.60
2019-06-18T00:44:08.097Z,4.30
2019-06-18T00:45:07.835Z,4.10
2019-06-18T00:46:08.165Z,4.20
2019-06-18T00:47:08.107Z,4.50
2019-06-18T00:48:07.897Z,4.30
2019-06-18T00:49:07.921Z,4.30
2019-06-18T00:50:07.945Z,4.10
2019-06-18T00:51:07.965Z,4.40
2019-06-18T00:52:07.994Z,4.20
2019-06-18T00:53:08.010Z,4.20
2019-06-18T00:54:08.036Z,4.50
2019-06-18T00:55:08.053Z,4.10
2019-06-18T00:56:08.077Z,4.50
2019-06-18T00:57:08.101Z,4.60
2019-06-18T00:58:08.357Z,4.10
2019-06-18T00:59:08.144Z,5.00
2019-06-18T01:00:08.169Z,4.30
2019-06-18T01:01:08.190Z,4.50
2019-06-18T01:02:08.213Z,4.50
2019-06-18T01:03:08.234Z,4.30
2019-06-18T01:04:08.257Z,3.90
2019-06-18T01:05:08.285Z,4.00
2019-06-18T01:06:08.304Z,4.30
2019-06-18T01:07:08.328Z,4.40
2019-06-18T01:08:08.353Z,4.10
2019-06-18T01:09:08.369Z,4.30
2019-06-18T01:10:08.396Z,4.40
2019-06-18T01:11:08.417Z,4.20
2019-06-18T01:12:08.437Z,4.10
2019-06-18T01:13:08.460Z,4.50
2019-06-18T01:14:08.480Z,4.30
2019-06-18T01:15:08.504Z,4.60
2019-06-18T01:16:18.631Z,3.90
2019-06-18T01:17:08.551Z,4.10
2019-06-18T01:18:08.584Z,4.60
2019-06-18T01:19:08.656Z,4.20
2019-06-18T01:20:08.658Z,4.50
2019-06-18T01:21:08.662Z,4.50
2019-06-18T01:22:08.738Z,4.50
2019-06-18T01:23:08.722Z,4.70
2019-06-18T01:24:08.750Z,4.50
2019-06-18T01:25:08.736Z,4.60
2019-06-18T01:26:08.752Z,4.50
2019-06-18T01:27:08.774Z,4.60
2019-06-18T01:28:08.803Z,4.40
2019-06-18T01:29:08.820Z,4.40
2019-06-18T01:30:08.841Z,4.40
2019-06-18T01:31:08.862Z,4.90
2019-06-18T01:32:08.885Z,4.50
2019-06-18T01:33:08.905Z,4.50
2019-06-18T01:34:08.932Z,4.40
2019-06-18T01:35:08.951Z,5.10
2019-06-18T01:36:08.975Z,4.30
2019-06-18T01:37:08.998Z,4.80
2019-06-18T01:38:09.021Z,4.60
2019-06-18T01:39:09.041Z,4.60
2019-06-18T01:40:09.059Z,4.60
2019-06-18T01:41:09.087Z,4.90
2019-06-18T01:42:09.129Z,4.30
2019-06-18T01:43:09.132Z,5.20
2019-06-18T01:44:09.153Z,4.50
2019-06-18T01:45:09.178Z,5.00
2019-06-18T01:46:09.198Z,4.80
2019-06-18T01:47:09.251Z,4.70
2019-06-18T01:48:09.253Z,4.90
2019-06-18T01:49:09.265Z,4.90
2019-06-18T01:50:09.287Z,5.00
2019-06-18T01:51:09.334Z,5.40
2019-06-18T01:52:09.330Z,5.10
2019-06-18T01:53:09.349Z,4.90
2019-06-18T01:54:09.375Z,4.60
2019-06-18T01:55:09.397Z,5.10
2019-06-18T01:56:09.420Z,5.10
2019-06-18T01:57:09.447Z,4.70
2019-06-18T01:58:09.463Z,5.10
2019-06-18T01:59:09.484Z,4.40
2019-06-18T02:00:09.505Z,5.10
2019-06-18T02:01:09.530Z,5.20
2019-06-18T02:02:12.264Z,4.70
2019-06-18T02:03:09.573Z,5.20
2019-06-18T02:04:09.596Z,4.90
2019-06-18T02:05:12.081Z,5.20
2019-06-18T02:06:09.644Z,5.10
2019-06-18T02:07:09.665Z,5.10
2019-06-18T02:08:12.234Z,5.30
2019-06-18T02:09:09.707Z,4.80
2019-06-18T02:10:09.728Z,5.20
2019-06-18T02:11:12.239Z,5.10
2019-06-18T02:12:09.774Z,5.10
2019-06-18T02:13:12.372Z,5.30
2019-06-18T02:14:09.816Z,5.50
2019-06-18T02:15:09.867Z,5.40
2019-06-18T02:16:09.864Z,5.40
2019-06-18T02:17:12.532Z,4.90
2019-06-18T02:18:12.486Z,5.00
2019-06-18T02:19:09.933Z,5.10
2019-06-18T02:20:09.988Z,5.30
2019-06-18T02:21:12.398Z,5.10
2019-06-18T02:22:09.996Z,5.30
2019-06-18T02:23:10.018Z,5.50
2019-06-18T02:24:12.768Z,4.90
2019-06-18T02:25:10.060Z,4.90
2019-06-18T02:26:10.083Z,5.70
2019-06-18T02:27:12.959Z,5.40
2019-06-18T02:28:12.233Z,5.20
2019-06-18T02:29:12.982Z,5.30
2019-06-18T02:30:13.527Z,5.30
2019-06-18T02:31:13.781Z,5.20
2019-06-18T02:32:10.216Z,5.50
2019-06-18T02:33:14.124Z,5.10
2019-06-18T02:34:12.465Z,5.80
2019-06-18T02:35:10.281Z,5.20
2019-06-18T02:36:12.841Z,5.20
2019-06-18T02:37:10.337Z,5.30
2019-06-18T02:38:12.981Z,5.10
2019-06-18T02:39:12.971Z,5.50
2019-06-18T02:40:12.686Z,5.40
2019-06-18T02:41:12.343Z,5.30
2019-06-18T02:42:12.813Z,5.40
2019-06-18T02:43:10.456Z,5.40
2019-06-18T02:44:12.672Z,5.20
2019-06-18T02:45:12.884Z,5.30
2019-06-18T02:46:13.143Z,5.70
2019-06-18T02:47:13.534Z,5.70
2019-06-18T02:48:12.575Z,4.80
2019-06-18T02:49:12.822Z,5.40
2019-06-18T02:50:13.380Z,5.30
2019-06-18T02:51:12.843Z,5.40
2019-06-18T02:52:12.575Z,5.60
2019-06-18T02:53:12.947Z,5.10
2019-06-18T02:54:12.724Z,5.30
2019-06-18T02:55:13.097Z,5.30
2019-06-18T02:56:13.078Z,5.20
2019-06-18T02:57:13.210Z,5.00
2019-06-18T02:58:12.371Z,5.00
2019-06-18T02:59:12.828Z,5.60
2019-06-18T03:00:10.832Z,5.10
2019-06-18T03:01:12.507Z,5.60
2019-06-18T03:02:13.120Z,5.00
2019-06-18T03:03:12.304Z,5.30
2019-06-18T03:04:12.834Z,5.20
2019-06-18T03:05:13.231Z,5.40
2019-06-18T03:06:12.880Z,5.90
2019-06-18T03:07:13.231Z,5.00
2019-06-18T03:08:12.631Z,4.70
2019-06-18T03:09:12.989Z,5.00
2019-06-18T03:10:12.955Z,5.40
2019-06-18T03:11:13.315Z,5.40
2019-06-18T03:12:12.839Z,5.50
2019-06-18T03:13:13.123Z,5.50
2019-06-18T03:14:13.063Z,5.40
2019-06-18T03:15:13.423Z,5.70
2019-06-18T03:16:12.849Z,5.70
2019-06-18T03:17:26.047Z,5.10
2019-06-18T03:18:13.336Z,5.70
2019-06-18T03:19:13.096Z,5.90
2019-06-18T03:20:12.355Z,5.60
2019-06-18T03:21:15.814Z,5.80
2019-06-18T03:22:12.486Z,5.30
2019-06-18T03:23:13.251Z,5.80
2019-06-18T03:24:13.265Z,5.80
2019-06-18T03:25:13.339Z,6.10
2019-06-18T03:26:12.365Z,5.30
2019-06-18T03:27:12.961Z,6.00
2019-06-18T03:28:12.753Z,5.70
2019-06-18T03:29:12.975Z,5.60
2019-06-18T03:30:14.768Z,5.60
2019-06-18T03:31:14.984Z,5.70
2019-06-18T03:32:14.482Z,6.20
2019-06-18T03:33:15.244Z,5.60
2019-06-18T03:34:14.909Z,5.40
2019-06-18T03:35:12.602Z,5.50
2019-06-18T03:36:12.800Z,5.20
2019-06-18T03:37:12.687Z,5.30
2019-06-18T03:38:12.328Z,5.40
2019-06-18T03:39:13.224Z,5.70
2019-06-18T03:40:12.946Z,5.30
2019-06-18T03:41:13.188Z,5.70
2019-06-18T03:42:12.993Z,5.30
2019-06-18T03:43:12.835Z,5.30
2019-06-18T03:44:12.396Z,5.80
2019-06-18T03:45:13.133Z,5.30
2019-06-18T03:46:12.357Z,5.70
2019-06-18T03:47:12.655Z,5.60
2019-06-18T03:48:12.902Z,5.50
2019-06-18T03:49:12.329Z,5.30
2019-06-18T03:50:13.284Z,5.40
2019-06-18T03:51:12.652Z,5.20
2019-06-18T03:52:13.162Z,5.40
2019-06-18T03:53:13.520Z,5.80
2019-06-18T03:54:13.272Z,5.50
2019-06-18T03:55:13.754Z,4.90
2019-06-18T03:56:12.562Z,5.40
2019-06-18T03:57:13.593Z,5.40
2019-06-18T03:58:12.781Z,5.60
2019-06-18T03:59:12.869Z,5.20
2019-06-18T04:00:13.484Z,5.30
2019-06-18T04:01:12.747Z,5.20
2019-06-18T04:02:12.938Z,5.30
2019-06-18T04:03:12.436Z,5.50
2019-06-18T04:04:13.011Z,5.40
2019-06-18T04:05:13.810Z,5.60
2019-06-18T04:06:12.629Z,5.70
2019-06-18T04:07:13.127Z,5.50
2019-06-18T04:08:12.614Z,5.60
2019-06-18T04:09:13.297Z,5.30
2019-06-18T04:10:12.653Z,5.70
2019-06-18T04:11:13.128Z,5.30
2019-06-18T04:12:13.341Z,6.20
2019-06-18T04:13:13.099Z,5.50
2019-06-18T04:14:13.505Z,5.10
2019-06-18T04:15:12.514Z,5.30
2019-06-18T04:16:13.916Z,5.40
2019-06-18T04:17:12.812Z,5.60
2019-06-18T04:18:13.154Z,5.50
2019-06-18T04:19:12.561Z,5.70
2019-06-18T04:20:13.290Z,5.60
2019-06-18T04:21:12.999Z,5.50
2019-06-18T04:22:13.491Z,5.10
2019-06-18T04:23:13.544Z,5.30
2019-06-18T04:24:13.468Z,5.30
2019-06-18T04:25:12.696Z,5.40
2019-06-18T04:26:12.900Z,5.80
2019-06-18T04:27:12.738Z,5.60
2019-06-18T04:28:13.165Z,5.40
2019-06-18T04:29:13.154Z,5.40
2019-06-18T04:30:13.369Z,5.50
2019-06-18T04:31:13.641Z,5.40
2019-06-18T04:32:12.990Z,5.90
2019-06-18T04:33:13.380Z,5.30
2019-06-18T04:34:13.116Z,5.80
2019-06-18T04:35:12.916Z,5.50
2019-06-18T04:36:13.226Z,5.90
2019-06-18T04:37:13.874Z,5.20
2019-06-18T04:38:12.990Z,6.00
2019-06-18T04:39:13.136Z,5.60
2019-06-18T04:40:13.507Z,5.30
2019-06-18T04:41:13.368Z,5.60
2019-06-18T04:42:13.077Z,5.30
2019-06-18T04:43:13.094Z,4.90
2019-06-18T04:44:13.368Z,5.50
2019-06-18T04:45:13.178Z,4.90
2019-06-18T04:46:13.257Z,5.20
2019-06-18T04:47:16.306Z,5.70
2019-06-18T04:48:23.366Z,5.30
2019-06-18T04:49:13.228Z,4.90
2019-06-18T04:50:13.620Z,4.80
2019-06-18T04:51:13.526Z,5.60
2019-06-18T04:52:13.297Z,5.30
2019-06-18T04:53:13.317Z,5.00
2019-06-18T04:54:13.667Z,5.70
2019-06-18T04:55:13.565Z,5.20
2019-06-18T04:56:13.385Z,5.20
2019-06-18T04:57:13.406Z,4.80
2019-06-18T04:58:13.430Z,5.40
2019-06-18T04:59:13.513Z,5.60
2019-06-18T05:00:13.472Z,5.10
2019-06-18T05:01:13.615Z,5.20
2019-06-18T05:02:13.519Z,5.00
2019-06-18T05:03:13.595Z,5.60
2019-06-18T05:04:13.567Z,5.50
2019-06-18T05:05:13.591Z,5.10
2019-06-18T05:06:13.938Z,4.90
2019-06-18T05:07:13.633Z,5.10
2019-06-18T05:08:13.654Z,4.90
2019-06-18T05:09:13.965Z,4.60
2019-06-18T05:10:13.701Z,4.90
2019-06-18T05:11:13.722Z,4.70
2019-06-18T05:12:13.745Z,5.30
2019-06-18T05:13:13.956Z,4.80
2019-06-18T05:14:13.790Z,5.30
2019-06-18T05:15:13.816Z,5.00
2019-06-18T05:16:13.836Z,4.90
2019-06-18T05:17:13.860Z,5.10
2019-06-18T05:18:13.881Z,4.90
2019-06-18T05:19:13.905Z,4.70
2019-06-18T05:20:13.928Z,4.30
2019-06-18T05:21:13.949Z,4.30
2019-06-18T05:22:13.982Z,4.50
2019-06-18T05:23:14.002Z,3.90
2019-06-18T05:24:14.021Z,4.20
2019-06-18T05:25:14.046Z,4.20
2019-06-18T05:26:14.068Z,4.20
2019-06-18T05:27:14.092Z,3.90
2019-06-18T05:28:14.116Z,3.90
2019-06-18T05:29:14.651Z,4.00
2019-06-18T05:30:14.169Z,3.80
2019-06-18T05:31:14.188Z,3.60
2019-06-18T05:32:14.218Z,3.50
2019-06-18T05:33:14.239Z,3.40
2019-06-18T05:34:14.268Z,3.30
2019-06-18T05:35:14.350Z,3.30
2019-06-18T05:36:14.362Z,3.10
2019-06-18T05:37:14.430Z,3.40
2019-06-18T05:38:14.411Z,3.70
2019-06-18T05:39:14.415Z,3.60
2019-06-18T05:40:14.412Z,3.40
2019-06-18T05:41:14.437Z,3.50
2019-06-18T05:42:14.466Z,3.70
2019-06-18T05:43:14.485Z,3.40
2019-06-18T05:44:14.521Z,3.60
2019-06-18T05:45:14.541Z,3.30
2019-06-18T05:46:14.567Z,3.70
2019-06-18T05:47:14.590Z,3.80
2019-06-18T05:48:14.614Z,4.40
2019-06-18T05:49:14.638Z,3.60
2019-06-18T05:50:17.378Z,3.70
2019-06-18T05:51:14.703Z,3.90
2019-06-18T05:52:14.711Z,3.80
2019-06-18T05:53:14.739Z,3.90
2019-06-18T05:54:14.764Z,4.00
2019-06-18T05:55:14.789Z,3.70
2019-06-18T05:56:14.827Z,4.00
2019-06-18T05:57:14.839Z,3.50
2019-06-18T05:58:14.862Z,3.70
2019-06-18T05:59:14.886Z,3.70
2019-06-18T06:00:14.923Z,4.00
2019-06-18T06:01:14.938Z,4.20
2019-06-18T06:02:14.960Z,3.80
2019-06-18T06:03:14.985Z,3.90
2019-06-18T06:04:15.011Z,3.60
2019-06-18T06:05:15.065Z,3.70
2019-06-18T06:06:15.066Z,4.20
2019-06-18T06:07:16.146Z,3.60
2019-06-18T06:08:15.108Z,3.40
2019-06-18T06:09:15.134Z,3.90
2019-06-18T06:10:15.166Z,3.30
2019-06-18T06:11:15.212Z,3.50
2019-06-18T06:12:15.210Z,3.70
2019-06-18T06:13:15.232Z,4.00
2019-06-18T06:14:15.258Z,3.50
2019-06-18T06:15:15.280Z,3.80
2019-06-18T06:16:15.309Z,3.50
2019-06-18T06:17:15.330Z,3.80
2019-06-18T06:18:15.359Z,3.30
2019-06-18T06:19:18.099Z,3.30
2019-06-18T06:20:15.406Z,3.60
2019-06-18T06:21:15.432Z,3.60
2019-06-18T06:22:15.458Z,3.30
2019-06-18T06:23:15.482Z,3.20
2019-06-18T06:24:15.510Z,2.90
2019-06-18T06:25:15.534Z,2.80
2019-06-18T06:26:15.714Z,2.80
2019-06-18T06:27:15.589Z,2.90
2019-06-18T06:28:15.613Z,2.70
2019-06-18T06:29:15.639Z,3.10
2019-06-18T06:30:15.668Z,2.80
2019-06-18T06:31:15.693Z,2.50
2019-06-18T06:32:15.720Z,2.90
2019-06-18T06:33:15.748Z,3.00
2019-06-18T06:34:15.779Z,3.00
2019-06-18T06:35:15.805Z,2.60
2019-06-18T06:36:15.844Z,3.00
2019-06-18T06:37:15.862Z,2.50
2019-06-18T06:38:15.890Z,2.90
2019-06-18T06:39:15.967Z,2.90
2019-06-18T06:40:15.950Z,2.80
2019-06-18T06:41:15.974Z,2.50
2019-06-18T06:42:16.007Z,2.90
2019-06-18T06:43:16.036Z,2.60
2019-06-18T06:44:16.091Z,3.00
2019-06-18T06:45:16.116Z,2.90
2019-06-18T06:46:16.123Z,2.40
2019-06-18T06:47:16.154Z,2.20
2019-06-18T06:48:16.269Z,2.40
2019-06-18T06:49:29.970Z,2.10
2019-06-18T06:50:16.329Z,2.40
2019-06-18T06:51:16.320Z,2.30
2019-06-18T06:52:16.321Z,2.50
2019-06-18T06:53:16.340Z,2.40
2019-06-18T06:54:16.370Z,2.20
2019-06-18T06:55:16.498Z,2.50
2019-06-18T06:56:16.440Z,2.00
2019-06-18T06:57:16.470Z,1.80
2019-06-18T06:58:25.863Z,2.10
2019-06-18T06:59:16.535Z,2.00
2019-06-18T07:00:16.567Z,2.10
2019-06-18T07:01:16.601Z,1.80
2019-06-18T07:02:16.632Z,2.20
2019-06-18T07:03:16.662Z,2.10
2019-06-18T07:04:16.695Z,1.90
2019-06-18T07:05:16.761Z,2.00
2019-06-18T07:06:16.767Z,2.10
2019-06-18T07:07:16.799Z,2.10
2019-06-18T07:08:16.829Z,2.20
2019-06-18T07:09:16.862Z,2.10
2019-06-18T07:10:16.896Z,2.10
2019-06-18T07:11:16.986Z,2.20
2019-06-18T07:12:16.961Z,2.00
2019-06-18T07:13:17.006Z,2.10
2019-06-18T07:14:17.033Z,2.10
2019-06-18T07:15:17.065Z,2.10
2019-06-18T07:16:17.098Z,2.10
2019-06-18T07:17:17.133Z,2.20
2019-06-18T07:18:17.173Z,1.90
2019-06-18T07:19:17.201Z,3.40
2019-06-18T07:20:17.238Z,2.40
2019-06-18T07:21:17.271Z,2.10
2019-06-18T07:22:17.305Z,4.20
2019-06-18T07:23:17.449Z,2.00
2019-06-18T07:24:17.373Z,3.70
2019-06-18T07:25:17.414Z,4.60
2019-06-18T07:26:17.449Z,2.40
2019-06-18T07:27:17.486Z,2.40
2019-06-18T07:28:17.519Z,2.30
2019-06-18T07:29:17.550Z,2.20
2019-06-18T07:30:17.590Z,2.00
2019-06-18T07:31:17.647Z,1.90
2019-06-18T07:32:17.670Z,1.70
2019-06-18T07:33:17.706Z,2.00
2019-06-18T07:34:17.728Z,2.00
2019-06-18T07:35:26.721Z,1.80
2019-06-18T07:36:17.806Z,1.80
2019-06-18T07:37:17.838Z,2.20
2019-06-18T07:38:17.877Z,2.00
2019-06-18T07:39:17.911Z,2.00
2019-06-18T07:40:17.950Z,1.90
2019-06-18T07:41:17.979Z,1.70
2019-06-18T07:42:18.017Z,1.90
2019-06-18T07:43:18.051Z,2.30
2019-06-18T07:44:18.097Z,2.90
2019-06-18T07:45:18.256Z,2.80
2019-06-18T07:46:18.193Z,3.20
2019-06-18T07:47:18.257Z,2.70
2019-06-18T07:48:18.262Z,2.70
2019-06-18T07:49:18.271Z,2.10
2019-06-18T07:50:21.428Z,2.10
2019-06-18T07:51:18.342Z,2.00
2019-06-18T07:52:18.386Z,2.10
2019-06-18T07:53:18.463Z,2.20
2019-06-18T07:54:18.456Z,1.70
2019-06-18T07:55:18.490Z,1.70
2019-06-18T07:56:18.525Z,1.90
2019-06-18T07:57:18.568Z,1.90
2019-06-18T07:58:18.602Z,2.20
2019-06-18T07:59:18.640Z,2.10
2019-06-18T08:00:18.677Z,2.20
2019-06-18T08:01:18.713Z,2.20
2019-06-18T08:02:18.763Z,2.00
2019-06-18T08:03:18.789Z,1.90
2019-06-18T08:04:18.826Z,1.90
2019-06-18T08:05:18.863Z,1.90
2019-06-18T08:06:18.915Z,1.70
2019-06-18T08:07:18.938Z,1.90
2019-06-18T08:08:18.981Z,1.90
2019-06-18T08:09:19.019Z,1.80
2019-06-18T08:10:19.054Z,1.90
2019-06-18T08:11:19.089Z,1.90
2019-06-18T08:12:19.132Z,1.80
2019-06-18T08:13:19.165Z,1.90
2019-06-18T08:14:19.210Z,1.80
2019-06-18T08:15:19.241Z,1.90
2019-06-18T08:16:19.277Z,1.80
2019-06-18T08:17:19.316Z,2.00
2019-06-18T08:18:19.372Z,1.70
2019-06-18T08:19:19.395Z,1.90
2019-06-18T08:20:33.981Z,2.00
2019-06-18T08:21:19.471Z,1.90
2019-06-18T08:22:19.510Z,2.00
2019-06-18T08:23:19.549Z,2.00
2019-06-18T08:24:19.583Z,1.80
2019-06-18T08:25:22.285Z,1.90
2019-06-18T08:26:19.728Z,1.90
2019-06-18T08:27:19.700Z,1.50
2019-06-18T08:28:22.233Z,1.60
2019-06-18T08:29:19.783Z,1.70
2019-06-18T08:30:31.758Z,1.60
2019-06-18T08:31:19.859Z,1.60
2019-06-18T08:32:22.550Z,1.60
2019-06-18T08:33:19.937Z,1.40
2019-06-18T08:34:22.218Z,1.60
2019-06-18T08:35:20.010Z,1.60
2019-06-18T08:36:22.041Z,1.70
2019-06-18T08:37:22.814Z,1.70
2019-06-18T08:38:20.187Z,1.70
2019-06-18T08:39:22.635Z,1.80
2019-06-18T08:40:22.211Z,1.90
2019-06-18T08:41:22.725Z,1.60
2019-06-18T08:42:22.831Z,1.50
2019-06-18T08:43:20.322Z,1.90
2019-06-18T08:44:22.401Z,1.60
2019-06-18T08:45:22.404Z,1.60
2019-06-18T08:46:21.140Z,1.40
2019-06-18T08:47:22.491Z,1.50
2019-06-18T08:48:22.274Z,1.60
2019-06-18T08:49:22.673Z,1.70
2019-06-18T08:50:22.530Z,1.80
2019-06-18T08:51:22.498Z,1.80
2019-06-18T08:52:22.579Z,1.60
2019-06-18T08:53:22.736Z,1.60
2019-06-18T08:54:22.536Z,1.40
2019-06-18T08:55:22.384Z,1.60
2019-06-18T08:56:23.253Z,1.60
2019-06-18T08:57:22.966Z,1.50
2019-06-18T08:58:22.747Z,2.10
2019-06-18T08:59:22.681Z,2.00
2019-06-18T09:00:22.937Z,1.60
2019-06-18T09:01:25.150Z,1.80
2019-06-18T09:02:22.666Z,1.70
2019-06-18T09:03:26.549Z,1.70
2019-06-18T09:04:22.345Z,1.60
2019-06-18T09:05:23.053Z,1.50
2019-06-18T09:06:23.739Z,1.40
2019-06-18T09:07:22.900Z,1.60
2019-06-18T09:08:22.849Z,1.60
2019-06-18T09:09:22.774Z,1.50
2019-06-18T09:10:22.379Z,1.80
2019-06-18T09:11:23.556Z,1.40
2019-06-18T09:12:23.355Z,1.60
2019-06-18T09:13:23.093Z,1.90
2019-06-18T09:14:23.534Z,1.70
2019-06-18T09:15:23.056Z,1.60
2019-06-18T09:16:23.583Z,1.40
2019-06-18T09:17:22.863Z,1.50
2019-06-18T09:18:23.409Z,1.40
2019-06-18T09:19:23.240Z,1.50
2019-06-18T09:20:23.307Z,1.30
2019-06-18T09:21:22.568Z,1.50
2019-06-18T09:22:22.607Z,1.30
2019-06-18T09:23:22.493Z,1.50
2019-06-18T09:24:22.591Z,1.60
2019-06-18T09:25:22.706Z,1.50
2019-06-18T09:26:23.195Z,1.50
2019-06-18T09:27:22.575Z,1.50
2019-06-18T09:28:23.231Z,1.60
2019-06-18T09:29:22.836Z,1.60
2019-06-18T09:30:22.976Z,1.50
2019-06-18T09:31:23.342Z,1.60
2019-06-18T09:32:23.404Z,1.70
2019-06-18T09:33:23.441Z,1.60
2019-06-18T09:34:22.681Z,1.50
2019-06-18T09:35:22.697Z,1.60
2019-06-18T09:36:22.498Z,1.50
2019-06-18T09:37:22.603Z,1.60
2019-06-18T09:38:23.083Z,1.40
2019-06-18T09:39:22.575Z,1.90
2019-06-18T09:40:23.759Z,1.80
2019-06-18T09:41:23.526Z,2.50
2019-06-18T09:42:22.707Z,1.80
2019-06-18T09:43:22.787Z,1.60
2019-06-18T09:44:22.941Z,1.50
2019-06-18T09:45:23.363Z,1.70
2019-06-18T09:46:22.973Z,1.60
2019-06-18T09:47:23.351Z,1.80
2019-06-18T09:48:23.519Z,1.80
2019-06-18T09:49:23.359Z,1.60
2019-06-18T09:50:23.511Z,1.60
2019-06-18T09:51:26.696Z,1.70
2019-06-18T09:52:23.549Z,1.70
2019-06-18T09:53:23.589Z,1.70
2019-06-18T09:54:23.429Z,1.90
2019-06-18T09:55:23.244Z,1.60
2019-06-18T09:56:23.284Z,1.70
2019-06-18T09:57:23.325Z,2.00
2019-06-18T09:58:23.368Z,1.90
2019-06-18T09:59:23.409Z,1.70
2019-06-18T10:00:23.467Z,1.60
2019-06-18T10:01:23.492Z,1.70
2019-06-18T10:02:23.533Z,1.50
2019-06-18T10:03:23.941Z,1.60
2019-06-18T10:04:23.955Z,1.60
2019-06-18T10:05:23.663Z,1.40
2019-06-18T10:06:23.795Z,1.40
2019-06-18T10:07:23.746Z,1.40
2019-06-18T10:08:23.790Z,1.60
2019-06-18T10:09:23.834Z,1.50
2019-06-18T10:10:23.877Z,1.50
2019-06-18T10:11:23.919Z,1.90
2019-06-18T10:12:24.015Z,1.50
2019-06-18T10:13:24.056Z,1.70
2019-06-18T10:14:24.080Z,2.40
2019-06-18T10:15:24.088Z,1.80
2019-06-18T10:16:24.130Z,1.70
2019-06-18T10:17:24.171Z,1.50
2019-06-18T10:18:24.219Z,1.70
2019-06-18T10:19:24.259Z,1.40
2019-06-18T10:20:24.301Z,1.60
2019-06-18T10:21:36.936Z,1.60
2019-06-18T10:22:24.387Z,1.70
2019-06-18T10:23:24.430Z,1.50
2019-06-18T10:24:24.472Z,1.30
2019-06-18T10:25:24.516Z,1.40
2019-06-18T10:26:24.564Z,1.60
2019-06-18T10:27:24.603Z,1.50
2019-06-18T10:28:24.644Z,1.70
2019-06-18T10:29:33.287Z,1.50
2019-06-18T10:30:24.730Z,1.60
2019-06-18T10:31:24.774Z,1.50
2019-06-18T10:32:24.830Z,1.50
2019-06-18T10:33:24.861Z,1.60
2019-06-18T10:34:24.905Z,1.60
2019-06-18T10:35:24.955Z,1.40
2019-06-18T10:36:24.996Z,1.50
2019-06-18T10:37:25.032Z,1.50
2019-06-18T10:38:25.077Z,1.40
2019-06-18T10:39:25.118Z,1.40
2019-06-18T10:40:25.194Z,1.40
2019-06-18T10:41:25.208Z,1.80
2019-06-18T10:42:25.249Z,2.50
2019-06-18T10:43:25.299Z,3.00
2019-06-18T10:44:25.348Z,2.60
2019-06-18T10:45:25.378Z,1.60
2019-06-18T10:46:25.422Z,1.50
2019-06-18T10:47:25.485Z,1.70
2019-06-18T10:48:25.546Z,1.50
2019-06-18T10:49:25.778Z,1.70
2019-06-18T10:50:25.594Z,1.40
2019-06-18T10:51:25.637Z,1.50
2019-06-18T10:52:25.681Z,1.50
2019-06-18T10:53:25.745Z,1.20
2019-06-18T10:54:25.767Z,1.30
2019-06-18T10:55:25.811Z,1.20
2019-06-18T10:56:25.859Z,1.50
2019-06-18T10:57:25.961Z,1.40
2019-06-18T10:58:26.020Z,1.60
2019-06-18T10:59:26.015Z,2.10
2019-06-18T11:00:26.035Z,1.70
2019-06-18T11:01:26.074Z,1.70
2019-06-18T11:02:26.117Z,2.40
2019-06-18T11:03:26.161Z,1.80
2019-06-18T11:04:26.203Z,1.60
2019-06-18T11:05:26.249Z,1.50
2019-06-18T11:06:29.625Z,1.40
2019-06-18T11:07:26.335Z,1.40
2019-06-18T11:08:26.534Z,1.50
2019-06-18T11:09:26.433Z,1.40
2019-06-18T11:10:26.468Z,1.30
2019-06-18T11:11:26.511Z,1.40
2019-06-18T11:12:28.818Z,1.70
2019-06-18T11:13:26.606Z,1.50
2019-06-18T11:14:26.696Z,1.30
2019-06-18T11:15:26.686Z,1.40
2019-06-18T11:16:26.734Z,1.40
2019-06-18T11:17:26.775Z,1.40
2019-06-18T11:18:26.819Z,1.30
2019-06-18T11:19:26.859Z,1.30
2019-06-18T11:20:26.901Z,1.60
2019-06-18T11:21:26.968Z,1.50
2019-06-18T11:22:26.994Z,1.90
2019-06-18T11:23:34.311Z,2.30
2019-06-18T11:24:27.078Z,1.70
2019-06-18T11:25:27.154Z,1.70
2019-06-18T11:26:27.173Z,1.30
2019-06-18T11:27:27.219Z,1.40
2019-06-18T11:28:27.254Z,1.40
2019-06-18T11:29:27.301Z,1.40
2019-06-18T11:30:27.339Z,1.70
2019-06-18T11:31:27.383Z,1.20
2019-06-18T11:32:27.428Z,1.40
2019-06-18T11:33:27.502Z,1.40
2019-06-18T11:34:27.517Z,1.50
2019-06-18T11:35:27.560Z,1.50
2019-06-18T11:36:27.603Z,1.70
2019-06-18T11:37:27.647Z,1.50
2019-06-18T11:38:27.691Z,1.60
2019-06-18T11:39:27.735Z,1.80
2019-06-18T11:40:27.782Z,1.60
2019-06-18T11:41:27.907Z,1.70
2019-06-18T11:42:27.924Z,1.70
2019-06-18T11:43:27.964Z,1.60
2019-06-18T11:44:27.967Z,1.60
2019-06-18T11:45:28.003Z,1.50
2019-06-18T11:46:28.047Z,1.60
2019-06-18T11:47:28.100Z,1.50
2019-06-18T11:48:28.149Z,1.50
2019-06-18T11:49:28.178Z,1.70
2019-06-18T11:50:28.221Z,1.50
2019-06-18T11:51:28.265Z,1.60
2019-06-18T11:52:32.868Z,1.60
2019-06-18T11:53:28.357Z,1.60
2019-06-18T11:54:28.399Z,1.60
2019-06-18T11:55:28.444Z,1.80
2019-06-18T11:56:28.486Z,1.40
2019-06-18T11:57:28.531Z,1.70
2019-06-18T11:58:28.581Z,1.60
2019-06-18T11:59:28.621Z,1.50
2019-06-18T12:00:28.665Z,1.60
2019-06-18T12:01:28.711Z,1.60
2019-06-18T12:02:28.752Z,1.50
2019-06-18T12:03:28.795Z,1.60
2019-06-18T12:04:28.847Z,1.70
2019-06-18T12:05:28.887Z,1.40
2019-06-18T12:06:28.932Z,1.60
2019-06-18T12:07:29.020Z,1.50
2019-06-18T12:08:29.015Z,1.40
2019-06-18T12:09:29.060Z,1.30
2019-06-18T12:10:29.107Z,1.40
2019-06-18T12:11:29.148Z,1.40
2019-06-18T12:12:29.192Z,1.40
2019-06-18T12:13:29.237Z,1.50
2019-06-18T12:14:29.393Z,1.60
2019-06-18T12:15:29.336Z,1.40
2019-06-18T12:16:29.369Z,1.40
2019-06-18T12:17:29.414Z,1.40
2019-06-18T12:18:29.465Z,1.50
2019-06-18T12:19:29.501Z,1.40
2019-06-18T12:20:29.546Z,1.50
2019-06-18T12:21:29.589Z,1.40
2019-06-18T12:22:45.461Z,1.40
2019-06-18T12:23:29.684Z,1.30
2019-06-18T12:24:29.723Z,1.60
2019-06-18T12:25:29.790Z,1.30
2019-06-18T12:26:29.861Z,1.40
2019-06-18T12:27:29.918Z,1.50
2019-06-18T12:28:29.917Z,1.50
2019-06-18T12:29:29.946Z,1.50
2019-06-18T12:30:29.996Z,1.40
2019-06-18T12:31:30.036Z,1.60
2019-06-18T12:32:33.681Z,1.30
2019-06-18T12:33:32.609Z,1.50
2019-06-18T12:34:33.051Z,1.40
2019-06-18T12:35:32.571Z,1.40
2019-06-18T12:36:32.648Z,1.40
2019-06-18T12:37:32.805Z,1.40
2019-06-18T12:38:30.355Z,1.60
2019-06-18T12:39:32.679Z,1.40
2019-06-18T12:40:32.553Z,1.90
2019-06-18T12:41:32.885Z,1.40
2019-06-18T12:42:30.524Z,1.60
2019-06-18T12:43:30.567Z,1.40
2019-06-18T12:44:32.932Z,1.30
2019-06-18T12:45:33.503Z,1.40
2019-06-18T12:46:33.549Z,1.40
2019-06-18T12:47:33.383Z,1.40
2019-06-18T12:48:32.848Z,1.40
2019-06-18T12:49:34.303Z,1.50
2019-06-18T12:50:32.964Z,1.50
2019-06-18T12:51:33.293Z,1.60
2019-06-18T12:52:32.626Z,1.60
2019-06-18T12:53:31.008Z,1.60
2019-06-18T12:54:32.684Z,1.50
2019-06-18T12:55:31.085Z,1.30
2019-06-18T12:56:33.083Z,1.30
2019-06-18T12:57:32.327Z,1.40
2019-06-18T12:58:32.850Z,1.30
2019-06-18T12:59:34.866Z,1.30
2019-06-18T13:00:33.507Z,1.40
2019-06-18T13:01:31.344Z,1.30
2019-06-18T13:02:32.837Z,1.40
2019-06-18T13:03:32.993Z,1.40
2019-06-18T13:04:32.770Z,1.30
2019-06-18T13:05:33.409Z,1.30
2019-06-18T13:06:32.756Z,1.40
2019-06-18T13:07:32.607Z,1.40
2019-06-18T13:08:32.585Z,1.30
2019-06-18T13:09:31.685Z,1.30
2019-06-18T13:10:34.266Z,1.80
2019-06-18T13:11:33.160Z,1.40
2019-06-18T13:12:33.210Z,1.50
2019-06-18T13:13:33.279Z,1.40
2019-06-18T13:14:33.088Z,1.30
2019-06-18T13:15:32.907Z,1.40
2019-06-18T13:16:33.210Z,1.30
2019-06-18T13:17:33.367Z,1.30
2019-06-18T13:18:32.075Z,1.50